createdAt,value
2022-07-31T00:00:26.925Z,1.30
2022-07-31T00:02:56.566Z,0.82
2022-07-31T00:05:25.619Z,0.73
2022-07-31T00:07:54.659Z,0.80
2022-07-31T00:10:22.988Z,0.60
2022-07-31T00:12:52.751Z,0.63
2022-07-31T00:15:21.181Z,0.80
2022-07-31T00:17:49.992Z,0.60
2022-07-31T00:20:19.142Z,0.90
2022-07-31T00:22:48.875Z,0.80
2022-07-31T00:25:18.552Z,0.60
2022-07-31T00:27:46.549Z,0.77
2022-07-31T00:30:17.598Z,0.60
2022-07-31T00:32:46.318Z,0.80
2022-07-31T00:35:17.244Z,0.90
2022-07-31T00:37:45.379Z,0.50
2022-07-31T00:40:15.695Z,0.70
2022-07-31T00:42:44.049Z,0.93
2022-07-31T00:45:13.676Z,0.60
2022-07-31T00:47:44.157Z,1.00
2022-07-31T00:50:12.852Z,0.65
2022-07-31T00:52:40.927Z,1.45
2022-07-31T00:55:10.020Z,0.60
2022-07-31T00:57:39.015Z,1.17
2022-07-31T01:00:08.253Z,0.95
2022-07-31T01:02:36.955Z,0.77
2022-07-31T01:05:07.351Z,1.15
2022-07-31T01:07:35.331Z,0.68
2022-07-31T01:10:07.907Z,0.85
2022-07-31T01:12:40.835Z,0.93
2022-07-31T01:15:11.618Z,0.60
2022-07-31T01:17:41.006Z,0.77
2022-07-31T01:20:12.057Z,0.93
2022-07-31T01:23:10.912Z,1.00
2022-07-31T01:25:57.238Z,1.00
2022-07-31T01:28:54.045Z,1.00
2022-07-31T01:31:27.874Z,1.20
2022-07-31T01:34:05.169Z,0.80
2022-07-31T01:36:35.833Z,1.25
2022-07-31T01:39:05.510Z,0.80
2022-07-31T01:41:39.124Z,0.85
2022-07-31T01:44:13.727Z,0.73
2022-07-31T01:46:44.754Z,0.90
2022-07-31T01:49:14.730Z,1.00
2022-07-31T01:51:45.296Z,0.80
2022-07-31T01:54:15.168Z,0.95
2022-07-31T01:56:44.693Z,0.73
2022-07-31T01:59:20.315Z,0.95
2022-07-31T02:02:30.327Z,1.27
2022-07-31T02:04:59.346Z,0.77
2022-07-31T02:07:29.594Z,1.08
2022-07-31T02:09:59.493Z,1.42
2022-07-31T02:12:34.289Z,1.13
2022-07-31T02:15:07.532Z,1.10
2022-07-31T02:17:38.614Z,0.90
2022-07-31T02:20:37.781Z,1.10
2022-07-31T02:23:14.122Z,1.13
2022-07-31T02:25:49.111Z,1.30
2022-07-31T02:28:21.628Z,0.95
2022-07-31T02:30:52.808Z,0.68
2022-07-31T02:33:25.151Z,0.90
2022-07-31T02:35:56.891Z,1.20
2022-07-31T02:38:27.568Z,0.90
2022-07-31T02:41:01.099Z,1.02
2022-07-31T02:43:32.945Z,1.15
2022-07-31T02:46:13.892Z,1.38
2022-07-31T02:48:44.497Z,1.23
2022-07-31T02:51:14.616Z,1.17
2022-07-31T02:53:45.726Z,0.77
2022-07-31T02:56:15.737Z,1.00
2022-07-31T02:58:51.406Z,1.10
2022-07-31T03:01:27.972Z,1.15
2022-07-31T03:03:57.447Z,1.48
2022-07-31T03:06:33.124Z,1.08
2022-07-31T03:09:04.407Z,0.88
2022-07-31T03:11:34.163Z,0.90
2022-07-31T03:14:15.574Z,1.42
2022-07-31T03:16:46.850Z,1.20
2022-07-31T03:19:15.207Z,1.05
2022-07-31T03:21:43.756Z,1.48
2022-07-31T03:24:15.246Z,1.52
2022-07-31T03:26:47.456Z,1.05
2022-07-31T03:29:41.801Z,1.30
2022-07-31T03:32:08.167Z,1.55
2022-07-31T03:34:42.265Z,1.10
2022-07-31T03:37:11.556Z,1.08
2022-07-31T03:39:39.975Z,1.70
2022-07-31T03:42:18.671Z,1.60
2022-07-31T03:44:48.119Z,1.35
2022-07-31T03:47:19.055Z,1.55
2022-07-31T03:49:48.137Z,1.65
2022-07-31T03:52:17.798Z,1.40
2022-07-31T03:54:46.168Z,1.45
2022-07-31T03:57:17.720Z,1.58
2022-07-31T03:59:48.391Z,1.20
2022-07-31T04:02:27.227Z,1.40
2022-07-31T04:05:09.818Z,1.55
2022-07-31T04:07:38.601Z,1.70
2022-07-31T04:10:07.741Z,1.70
2022-07-31T04:12:35.583Z,1.92
2022-07-31T04:15:03.502Z,2.03
2022-07-31T04:17:33.806Z,2.45
2022-07-31T04:20:02.646Z,2.42
2022-07-31T04:22:34.284Z,1.52
2022-07-31T04:25:06.357Z,1.50
2022-07-31T04:27:49.789Z,1.20
2022-07-31T04:30:18.539Z,1.65
2022-07-31T04:32:49.205Z,1.73
2022-07-31T04:35:22.143Z,2.25
2022-07-31T04:37:50.056Z,1.90
2022-07-31T04:40:19.368Z,1.30
2022-07-31T04:42:52.558Z,1.75
2022-07-31T04:45:22.879Z,1.57
2022-07-31T04:47:55.399Z,1.75
2022-07-31T04:50:27.615Z,1.20
2022-07-31T04:52:56.879Z,1.70
2022-07-31T04:55:31.755Z,1.13
2022-07-31T05:00:30.248Z,1.40
2022-07-31T05:03:02.714Z,1.33
2022-07-31T05:05:31.370Z,1.30
2022-07-31T05:08:06.130Z,1.17
2022-07-31T05:11:01.007Z,1.40
2022-07-31T05:13:30.655Z,3.10
2022-07-31T05:16:08.189Z,1.65
2022-07-31T05:18:38.011Z,1.63
2022-07-31T05:21:28.347Z,1.50
2022-07-31T05:27:15.485Z,1.17
2022-07-31T05:29:47.630Z,1.23
2022-07-31T05:32:15.933Z,0.82
2022-07-31T05:34:45.474Z,0.98
2022-07-31T05:37:13.637Z,1.20
2022-07-31T05:39:51.039Z,0.80
2022-07-31T05:42:37.808Z,1.38
2022-07-31T05:45:38.091Z,1.23
2022-07-31T05:48:07.002Z,1.20
2022-07-31T05:50:36.350Z,0.82
2022-07-31T05:53:04.838Z,0.80
2022-07-31T05:55:52.248Z,0.85
2022-07-31T05:58:34.166Z,1.20
2022-07-31T06:01:13.342Z,1.08
2022-07-31T06:03:51.845Z,1.73
2022-07-31T06:06:36.850Z,1.00
2022-07-31T06:09:06.696Z,1.05
2022-07-31T06:11:40.295Z,0.98
2022-07-31T06:14:11.718Z,0.95
2022-07-31T06:16:58.109Z,1.00
2022-07-31T06:19:31.548Z,0.98
2022-07-31T06:22:00.814Z,0.60
2022-07-31T06:24:32.135Z,0.50
2022-07-31T06:27:04.698Z,1.10
2022-07-31T06:29:41.532Z,0.80
2022-07-31T06:32:13.099Z,1.05
2022-07-31T06:34:51.599Z,0.90
2022-07-31T06:37:36.473Z,0.73
2022-07-31T06:40:06.710Z,0.88
2022-07-31T06:42:56.087Z,0.70
2022-07-31T06:45:51.611Z,1.00
2022-07-31T06:48:40.843Z,0.70
2022-07-31T06:54:06.902Z,0.80
2022-07-31T06:56:36.632Z,0.98
2022-07-31T06:59:05.895Z,0.75
2022-07-31T07:01:37.494Z,1.02
2022-07-31T07:04:14.621Z,0.82
2022-07-31T07:06:44.936Z,0.80
2022-07-31T07:09:17.447Z,0.90
2022-07-31T07:11:54.983Z,0.80
2022-07-31T07:14:23.518Z,0.70
2022-07-31T07:16:55.190Z,0.73
2022-07-31T07:19:23.233Z,0.68
2022-07-31T07:21:51.163Z,0.98
2022-07-31T07:24:25.876Z,0.65
2022-07-31T07:29:53.644Z,0.70
2022-07-31T07:32:21.737Z,1.15
2022-07-31T07:35:00.260Z,0.88
2022-07-31T07:37:52.283Z,0.93
2022-07-31T07:40:27.347Z,0.80
2022-07-31T07:45:34.659Z,0.57
2022-07-31T07:48:06.339Z,0.75
2022-07-31T07:50:50.320Z,1.17
2022-07-31T07:53:32.975Z,0.65
2022-07-31T07:56:24.766Z,1.00
2022-07-31T07:59:22.441Z,0.60
2022-07-31T08:02:09.256Z,0.50
2022-07-31T08:04:37.963Z,0.70
2022-07-31T08:07:06.172Z,1.40
2022-07-31T08:09:39.302Z,0.70
2022-07-31T08:12:34.008Z,1.15
2022-07-31T08:15:11.790Z,0.95
2022-07-31T08:18:13.954Z,0.80
2022-07-31T08:20:42.982Z,0.57
2022-07-31T08:23:13.462Z,0.50
2022-07-31T08:25:46.406Z,0.40
2022-07-31T08:28:24.093Z,0.40
2022-07-31T08:30:52.511Z,0.40
2022-07-31T08:33:28.091Z,0.40
2022-07-31T08:35:56.870Z,0.93
2022-07-31T08:38:31.967Z,0.80
2022-07-31T08:41:24.066Z,0.80
2022-07-31T08:43:59.883Z,0.93
2022-07-31T08:46:37.862Z,0.90
2022-07-31T08:49:09.756Z,1.05
2022-07-31T08:51:51.058Z,0.57
2022-07-31T08:54:56.076Z,0.70
2022-07-31T08:57:26.883Z,0.85
2022-07-31T08:59:56.658Z,0.30
2022-07-31T09:02:35.429Z,0.40
2022-07-31T09:05:42.716Z,0.50
2022-07-31T09:08:14.540Z,0.70
2022-07-31T09:10:50.005Z,0.40
2022-07-31T09:13:20.159Z,0.60
2022-07-31T09:15:52.744Z,0.70
2022-07-31T09:18:24.735Z,0.50
2022-07-31T09:21:05.685Z,0.90
2022-07-31T09:23:34.437Z,0.70
2022-07-31T09:26:05.453Z,0.70
2022-07-31T09:28:36.232Z,0.60
2022-07-31T09:31:15.017Z,0.77
2022-07-31T09:34:02.495Z,0.57
2022-07-31T09:36:50.083Z,0.70
2022-07-31T09:39:52.314Z,0.52
2022-07-31T09:42:45.559Z,0.30
2022-07-31T09:45:22.711Z,0.40
2022-07-31T09:48:14.324Z,0.50
2022-07-31T09:50:53.998Z,0.57
2022-07-31T09:53:28.622Z,0.50
2022-07-31T09:56:14.714Z,0.85
2022-07-31T09:58:43.329Z,0.60
2022-07-31T10:01:13.237Z,0.50
2022-07-31T10:03:42.962Z,0.73
2022-07-31T10:06:16.416Z,0.40
2022-07-31T10:08:46.912Z,0.63
2022-07-31T10:11:30.134Z,0.65
2022-07-31T10:14:16.614Z,0.47
2022-07-31T10:16:46.487Z,0.60
2022-07-31T10:19:38.126Z,0.43
2022-07-31T10:22:26.116Z,0.60
2022-07-31T10:24:56.214Z,0.50
2022-07-31T10:27:27.223Z,0.50
2022-07-31T10:30:10.957Z,0.40
2022-07-31T10:32:44.506Z,0.40
2022-07-31T10:35:44.413Z,0.43
2022-07-31T10:38:52.105Z,0.68
2022-07-31T10:42:15.785Z,0.52
2022-07-31T10:44:48.137Z,0.50
2022-07-31T10:47:34.843Z,0.30
2022-07-31T10:50:22.516Z,0.47
2022-07-31T10:53:54.475Z,0.45
2022-07-31T10:56:24.848Z,0.30
2022-07-31T10:59:14.707Z,0.30
2022-07-31T11:02:10.633Z,0.43
2022-07-31T11:04:48.297Z,0.60
2022-07-31T11:07:38.874Z,0.60
2022-07-31T11:10:27.719Z,0.85
2022-07-31T11:13:33.588Z,0.50
2022-07-31T11:16:20.335Z,0.60
2022-07-31T11:19:04.822Z,0.50
2022-07-31T11:21:39.638Z,0.70
2022-07-31T11:24:24.391Z,0.52
2022-07-31T11:26:55.557Z,0.43
2022-07-31T11:30:01.218Z,0.40
2022-07-31T11:32:24.836Z,0.47
2022-07-31T11:34:55.992Z,0.60
2022-07-31T11:37:46.479Z,0.50
2022-07-31T11:40:22.328Z,0.47
2022-07-31T11:43:04.985Z,0.50
2022-07-31T11:45:49.645Z,0.50
2022-07-31T11:48:19.093Z,0.45
2022-07-31T11:50:48.427Z,0.57
2022-07-31T11:53:16.784Z,0.70
2022-07-31T11:55:46.404Z,0.57
2022-07-31T11:58:17.415Z,0.40
2022-07-31T12:00:52.775Z,0.43
2022-07-31T12:03:31.390Z,0.30
2022-07-31T12:06:06.875Z,0.50
2022-07-31T12:08:35.588Z,0.30
2022-07-31T12:11:09.423Z,0.30
2022-07-31T12:14:05.879Z,0.40
2022-07-31T12:16:41.556Z,0.63
2022-07-31T12:19:17.628Z,0.68
2022-07-31T12:21:46.290Z,0.35
2022-07-31T12:24:15.373Z,0.65
2022-07-31T12:26:49.991Z,0.50
2022-07-31T12:29:20.434Z,0.35
2022-07-31T12:31:49.820Z,0.57
2022-07-31T12:34:31.639Z,0.32
2022-07-31T12:37:04.329Z,0.38
2022-07-31T12:39:47.552Z,0.35
2022-07-31T12:42:30.229Z,0.40
2022-07-31T12:45:18.283Z,0.38
2022-07-31T12:47:52.135Z,0.50
2022-07-31T12:50:23.969Z,0.70
2022-07-31T12:52:57.959Z,0.35
2022-07-31T12:55:29.136Z,0.47
2022-07-31T12:57:58.103Z,0.40
2022-07-31T13:00:28.854Z,0.55
2022-07-31T13:02:58.320Z,0.40
2022-07-31T13:05:27.462Z,0.30
2022-07-31T13:07:55.469Z,0.80
2022-07-31T13:10:29.284Z,0.63
2022-07-31T13:13:00.470Z,0.50
2022-07-31T13:15:30.633Z,0.30
2022-07-31T13:17:59.412Z,0.40
2022-07-31T13:20:27.379Z,0.63
2022-07-31T13:22:55.290Z,0.50
2022-07-31T13:25:26.817Z,0.57
2022-07-31T13:27:54.838Z,0.73
2022-07-31T13:30:25.890Z,0.57
2022-07-31T13:32:55.531Z,0.65
2022-07-31T13:35:27.839Z,0.55
2022-07-31T13:37:57.091Z,0.60
2022-07-31T13:40:39.181Z,0.60
2022-07-31T13:43:10.529Z,0.50
2022-07-31T13:45:38.666Z,0.50
2022-07-31T13:48:10.023Z,0.57
2022-07-31T13:50:39.595Z,0.77
2022-07-31T13:53:07.867Z,0.60
2022-07-31T13:55:38.928Z,0.43
2022-07-31T13:58:07.457Z,0.55
2022-07-31T14:00:35.541Z,0.40
2022-07-31T14:03:03.477Z,0.40
2022-07-31T14:05:37.971Z,0.40
2022-07-31T14:08:33.333Z,0.50
2022-07-31T14:10:57.263Z,0.80
2022-07-31T14:13:28.932Z,0.70
2022-07-31T14:15:59.842Z,0.60
2022-07-31T14:18:27.917Z,0.90
2022-07-31T14:21:09.765Z,0.65
2022-07-31T14:23:40.718Z,0.60
2022-07-31T14:26:09.428Z,0.47
2022-07-31T14:28:43.452Z,0.63
2022-07-31T14:31:11.836Z,0.38
2022-07-31T14:33:49.093Z,0.70
2022-07-31T14:36:20.947Z,0.60
2022-07-31T14:38:51.727Z,0.50
2022-07-31T14:41:19.727Z,0.60
2022-07-31T14:43:47.686Z,0.40
2022-07-31T14:46:15.642Z,0.40
2022-07-31T14:48:46.470Z,0.68
2022-07-31T14:51:23.740Z,0.50
2022-07-31T14:53:52.467Z,0.40
2022-07-31T14:56:45.023Z,0.65
2022-07-31T14:59:09.114Z,0.70
2022-07-31T15:01:39.726Z,0.80
2022-07-31T15:04:13.647Z,0.50
2022-07-31T15:06:56.230Z,0.73
2022-07-31T15:09:31.603Z,0.80
2022-07-31T15:12:06.310Z,0.47
2022-07-31T15:14:36.979Z,0.40
2022-07-31T15:17:07.874Z,0.60
2022-07-31T15:19:36.101Z,0.50
2022-07-31T15:22:10.947Z,0.60
2022-07-31T15:24:47.525Z,0.60
2022-07-31T15:27:21.544Z,0.50
2022-07-31T15:30:03.885Z,0.80
2022-07-31T15:32:43.248Z,0.55
2022-07-31T15:35:13.493Z,0.50
2022-07-31T15:37:45.292Z,0.55
2022-07-31T15:40:15.098Z,0.43
2022-07-31T15:42:44.556Z,0.60
2022-07-31T15:45:15.656Z,0.60
2022-07-31T15:47:44.559Z,0.60
2022-07-31T15:50:17.082Z,0.55
2022-07-31T15:52:46.465Z,0.60
2022-07-31T15:55:15.551Z,0.63
2022-07-31T15:57:43.584Z,0.52
2022-07-31T16:00:13.068Z,0.57
2022-07-31T16:02:42.466Z,0.60
2022-07-31T16:05:21.808Z,0.75
2022-07-31T16:08:32.246Z,1.00
2022-07-31T16:10:54.006Z,0.95
2022-07-31T16:13:25.861Z,0.77
2022-07-31T16:15:57.213Z,1.00
2022-07-31T16:18:28.207Z,0.57
2022-07-31T16:20:56.117Z,0.43
2022-07-31T16:23:27.550Z,0.90
2022-07-31T16:25:55.748Z,1.08
2022-07-31T16:28:23.626Z,0.40
2022-07-31T16:30:51.681Z,0.70
2022-07-31T16:33:21.823Z,0.55
2022-07-31T16:35:49.676Z,0.85
2022-07-31T16:38:20.114Z,0.60
2022-07-31T16:40:53.285Z,0.70
2022-07-31T16:43:50.706Z,0.40
2022-07-31T16:46:12.163Z,0.50
2022-07-31T16:48:40.226Z,0.40
2022-07-31T16:51:08.170Z,0.50
2022-07-31T16:54:14.211Z,0.30
2022-07-31T16:56:28.618Z,0.50
2022-07-31T16:58:58.421Z,0.20
2022-07-31T17:01:53.968Z,0.30
2022-07-31T17:04:25.656Z,0.20
2022-07-31T17:06:53.556Z,0.30
2022-07-31T17:09:21.586Z,0.30
2022-07-31T17:11:59.670Z,0.30
2022-07-31T17:14:29.152Z,0.55
2022-07-31T17:17:07.942Z,0.30
2022-07-31T17:19:45.457Z,0.50
2022-07-31T17:22:17.639Z,0.40
2022-07-31T17:27:39.444Z,0.40
2022-07-31T17:30:08.962Z,0.50
2022-07-31T17:32:36.963Z,0.40
2022-07-31T17:35:05.573Z,0.70
2022-07-31T17:37:36.237Z,0.85
2022-07-31T17:40:27.057Z,0.80
2022-07-31T17:42:56.784Z,0.85
2022-07-31T17:45:26.590Z,0.95
2022-07-31T17:48:06.109Z,0.65
2022-07-31T17:50:34.340Z,0.70
2022-07-31T17:53:02.255Z,0.70
2022-07-31T17:55:30.244Z,0.70
2022-07-31T17:57:59.695Z,0.65
2022-07-31T18:00:31.071Z,0.47
2022-07-31T18:03:00.624Z,1.08
2022-07-31T18:05:31.366Z,0.60
2022-07-31T18:07:59.447Z,0.50
2022-07-31T18:10:51.905Z,0.60
2022-07-31T18:13:16.636Z,0.57
2022-07-31T18:15:44.890Z,0.70
2022-07-31T18:18:12.830Z,0.70
2022-07-31T18:20:40.995Z,0.70
2022-07-31T18:23:10.226Z,0.88
2022-07-31T18:25:38.506Z,0.82
2022-07-31T18:28:07.241Z,0.50
2022-07-31T18:30:40.791Z,1.17
2022-07-31T18:33:09.972Z,0.82
2022-07-31T18:35:38.533Z,0.98
2022-07-31T18:38:09.647Z,0.70
2022-07-31T18:40:37.719Z,1.05
2022-07-31T18:43:07.478Z,0.50
2022-07-31T18:45:39.484Z,0.60
2022-07-31T18:48:09.772Z,0.88
2022-07-31T18:51:01.371Z,0.82
2022-07-31T18:53:26.436Z,0.77
2022-07-31T18:56:01.201Z,0.80
2022-07-31T18:58:32.378Z,0.50
2022-07-31T19:01:04.374Z,0.73
2022-07-31T19:03:38.490Z,0.70
2022-07-31T19:06:07.428Z,0.60
2022-07-31T19:08:35.293Z,0.70
2022-07-31T19:11:05.825Z,0.75
2022-07-31T19:13:33.908Z,0.75
2022-07-31T19:16:07.067Z,0.60
2022-07-31T19:18:36.525Z,0.70
2022-07-31T19:21:41.147Z,0.80
2022-07-31T19:24:07.354Z,0.70
2022-07-31T19:26:41.606Z,0.85
2022-07-31T19:29:12.713Z,0.70
2022-07-31T19:31:49.158Z,0.80
2022-07-31T19:34:18.301Z,0.82
2022-07-31T19:36:46.791Z,0.50
2022-07-31T19:39:16.361Z,0.80
2022-07-31T19:42:07.324Z,0.50
2022-07-31T19:44:35.840Z,1.00
2022-07-31T19:47:06.267Z,0.70
2022-07-31T19:49:38.092Z,0.52
2022-07-31T19:52:07.875Z,0.57
2022-07-31T19:54:45.253Z,0.70
2022-07-31T19:57:13.184Z,0.88
2022-07-31T19:59:41.161Z,0.70
2022-07-31T20:02:16.866Z,0.80
2022-07-31T20:04:49.702Z,0.85
2022-07-31T20:07:20.693Z,0.65
2022-07-31T20:09:48.671Z,0.90
2022-07-31T20:12:17.985Z,0.52
2022-07-31T20:14:49.317Z,0.70
2022-07-31T20:17:18.761Z,1.00
2022-07-31T20:20:04.690Z,1.17
2022-07-31T20:22:38.547Z,0.80
2022-07-31T20:25:12.054Z,0.70
2022-07-31T20:27:48.131Z,0.88
2022-07-31T20:30:21.677Z,0.88
2022-07-31T20:32:51.488Z,0.70
2022-07-31T20:35:47.306Z,0.73
2022-07-31T20:38:11.699Z,0.60
2022-07-31T20:40:53.071Z,0.80
2022-07-31T20:43:23.334Z,0.63
2022-07-31T20:45:51.855Z,0.65
2022-07-31T20:48:34.760Z,0.40
2022-07-31T20:51:04.915Z,0.47
2022-07-31T20:53:36.737Z,0.60
2022-07-31T20:56:05.144Z,0.77
2022-07-31T20:58:49.446Z,0.65
2022-07-31T21:01:20.156Z,0.70
2022-07-31T21:03:49.974Z,0.57
2022-07-31T21:06:20.949Z,0.68
2022-07-31T21:08:50.003Z,0.75
2022-07-31T21:11:17.854Z,0.68
2022-07-31T21:13:45.919Z,0.80
2022-07-31T21:16:13.915Z,0.52
2022-07-31T21:18:47.325Z,0.70
2022-07-31T21:21:16.656Z,0.75
2022-07-31T21:23:45.917Z,0.80
2022-07-31T21:26:17.157Z,0.77
2022-07-31T21:28:48.380Z,0.70
2022-07-31T21:31:16.945Z,0.73
2022-07-31T21:33:45.456Z,0.70
2022-07-31T21:36:16.240Z,0.47
2022-07-31T21:38:44.686Z,0.57
2022-07-31T21:41:13.211Z,0.50
2022-07-31T21:43:58.751Z,0.80
2022-07-31T21:46:29.887Z,0.47
2022-07-31T21:48:58.300Z,0.85
2022-07-31T21:51:28.513Z,0.88
2022-07-31T21:53:56.587Z,0.63
2022-07-31T21:56:24.528Z,0.90
2022-07-31T21:58:52.526Z,0.70
2022-07-31T22:01:20.384Z,0.93
2022-07-31T22:03:48.264Z,0.98
2022-07-31T22:06:36.650Z,1.17
2022-07-31T22:09:13.525Z,1.00
2022-07-31T22:11:54.966Z,1.15
2022-07-31T22:14:33.486Z,0.80
2022-07-31T22:17:07.883Z,0.90
2022-07-31T22:19:47.435Z,0.60
2022-07-31T22:22:19.933Z,0.90
2022-07-31T22:24:50.618Z,0.55
2022-07-31T22:27:42.031Z,0.60
2022-07-31T22:30:13.582Z,0.55
2022-07-31T22:32:52.984Z,1.00
2022-07-31T22:35:21.789Z,0.80
2022-07-31T22:37:55.320Z,0.57
2022-07-31T22:40:25.863Z,0.70
2022-07-31T22:42:57.651Z,0.82
2022-07-31T22:45:27.118Z,0.50
2022-07-31T22:47:57.893Z,0.60
2022-07-31T22:50:26.252Z,0.60
2022-07-31T22:52:54.354Z,0.68
2022-07-31T22:55:24.129Z,0.60
2022-07-31T22:57:51.965Z,0.90
2022-07-31T23:00:20.769Z,0.60
2022-07-31T23:02:48.877Z,0.85
2022-07-31T23:05:19.639Z,0.80
2022-07-31T23:07:47.703Z,1.23
2022-07-31T23:10:17.261Z,0.80
2022-07-31T23:12:46.610Z,1.08
2022-07-31T23:15:14.578Z,0.70
2022-07-31T23:17:47.989Z,0.68
2022-07-31T23:20:16.177Z,0.75
2022-07-31T23:22:44.078Z,0.63
2022-07-31T23:25:20.402Z,0.82
2022-07-31T23:27:53.202Z,0.68
2022-07-31T23:30:27.381Z,0.60
2022-07-31T23:32:58.505Z,0.50
2022-07-31T23:35:26.563Z,0.63
2022-07-31T23:37:57.258Z,0.60
2022-07-31T23:40:25.388Z,0.60
2022-07-31T23:42:56.678Z,0.80
2022-07-31T23:45:24.686Z,0.90
2022-07-31T23:47:52.578Z,0.77
2022-07-31T23:50:20.728Z,0.60
2022-07-31T23:52:48.632Z,0.57
2022-07-31T23:55:16.577Z,0.75
2022-07-31T23:57:46.899Z,0.80
